Time;durP1;ratioP1;P1;durP2;ratioP2;P2;SDS_P1;SDS_P2;PMS_P1;PMS_P2;Temp;Humidity;BMP_temperature;BMP_pressure;BME280_temperature;BME280_humidity;BME280_pressure;Samples;Min_cycle;Max_cycle;Signal;HPM_P1;HPM_P2
2023/04/25 06:00:32;;;;;;;;;;;20.80;73.80;;;;;;6271638;22;19930;-64
2023/04/25 06:02:58;;;;;;;;;;;20.80;73.20;;;;;;6271597;22;19915;-65
2023/04/25 06:05:25;;;;;;;;;;;20.80;72.90;;;;;;6271877;22;20115;-64
2023/04/25 06:07:52;;;;;;;;;;;20.70;73.00;;;;;;6272746;22;19915;-64
2023/04/25 06:10:19;;;;;;;;;;;20.70;73.40;;;;;;6272561;22;19907;-64
2023/04/25 06:12:45;;;;;;;;;;;20.70;72.90;;;;;;6272721;22;19961;-64
2023/04/25 06:15:12;;;;;;;;;;;20.70;72.70;;;;;;6271220;22;19911;-66
2023/04/25 06:17:39;;;;;;;;;;;20.70;73.20;;;;;;6271477;22;19907;-66
2023/04/25 06:20:06;;;;;;;;;;;20.60;73.30;;;;;;6272378;22;19907;-65
2023/04/25 06:22:33;;;;;;;;;;;20.60;72.60;;;;;;6272771;22;20323;-65
2023/04/25 06:25:00;;;;;;;;;;;20.60;73.00;;;;;;6272646;22;19907;-65
2023/04/25 06:27:26;;;;;;;;;;;20.60;72.90;;;;;;6272344;22;19908;-65
2023/04/25 06:29:53;;;;;;;;;;;20.50;73.00;;;;;;6273223;22;19911;-67
2023/04/25 06:32:20;;;;;;;;;;;20.50;73.00;;;;;;6272529;22;19977;-64
2023/04/25 06:34:46;;;;;;;;;;;20.50;72.30;;;;;;6274528;22;19904;-63
2023/04/25 06:37:13;;;;;;;;;;;20.50;72.30;;;;;;6274371;22;20367;-64
2023/04/25 06:39:40;;;;;;;;;;;20.50;72.60;;;;;;6274518;22;19908;-64
2023/04/25 06:42:07;;;;;;;;;;;20.50;72.60;;;;;;6274862;22;19907;-64
2023/04/25 06:44:33;;;;;;;;;;;20.50;72.50;;;;;;6272174;22;20106;-64
2023/04/25 06:47:00;;;;;;;;;;;20.50;72.60;;;;;;6274141;22;19935;-64
2023/04/25 06:49:27;;;;;;;;;;;20.50;73.20;;;;;;6274109;22;19915;-64
2023/04/25 06:51:53;;;;;;;;;;;20.50;72.80;;;;;;6273817;22;20335;-64
2023/04/25 06:54:20;;;;;;;;;;;20.40;73.00;;;;;;6274295;22;19904;-65
2023/04/25 06:56:47;;;;;;;;;;;20.40;73.10;;;;;;6274674;22;19986;-65
2023/04/25 06:59:14;;;;;;;;;;;20.40;72.40;;;;;;6274374;22;19976;-64
2023/04/25 07:01:40;;;;;;;;;;;20.30;72.40;;;;;;6274117;22;20318;-63
2023/04/25 07:04:11;;;;;;;;;;;20.30;71.80;;;;;;6272730;22;21477;-63
2023/04/25 07:06:42;;;;;;;;;;;20.30;72.20;;;;;;6274103;22;19973;-65
2023/04/25 07:09:09;;;;;;;;;;;20.30;72.40;;;;;;6273872;22;19995;-65
2023/04/25 07:11:36;;;;;;;;;;;20.30;72.10;;;;;;6273934;22;19914;-66
2023/04/25 07:14:03;;;;;;;;;;;20.30;72.00;;;;;;6272437;22;19910;-67
2023/04/25 07:16:29;;;;;;;;;;;20.30;72.50;;;;;;6245973;22;20338;-67
2023/04/25 07:18:56;;;;;;;;;;;20.20;72.10;;;;;;6273049;22;19907;-67
2023/04/25 07:21:23;;;;;;;;;;;20.20;72.60;;;;;;6273400;22;19914;-67
2023/04/25 07:23:49;;;;;;;;;;;20.20;72.40;;;;;;6246898;22;19930;-67
2023/04/25 07:26:16;;;;;;;;;;;20.20;72.50;;;;;;6273426;22;19978;-67
2023/04/25 07:28:43;;;;;;;;;;;20.20;72.70;;;;;;6274069;22;19921;-67
2023/04/25 07:31:09;;;;;;;;;;;20.10;72.90;;;;;;6273110;22;19945;-67
2023/04/25 07:33:36;;;;;;;;;;;20.10;72.50;;;;;;6273275;22;19904;-65
2023/04/25 07:36:03;;;;;;;;;;;20.10;72.70;;;;;;6272983;22;19913;-65
2023/04/25 07:38:29;;;;;;;;;;;20.10;72.60;;;;;;6270759;22;19911;-65
2023/04/25 07:40:56;;;;;;;;;;;20.10;72.90;;;;;;6273182;22;19907;-65
2023/04/25 07:43:22;;;;;;;;;;;20.10;72.80;;;;;;6273707;22;19911;-65
2023/04/25 07:45:49;;;;;;;;;;;20.00;72.40;;;;;;6270679;22;19978;-65
2023/04/25 07:48:18;;;;;;;;;;;20.00;72.70;;;;;;6271607;22;20285;-65
2023/04/25 07:50:45;;;;;;;;;;;20.10;72.90;;;;;;6272932;22;19938;-65
2023/04/25 07:53:12;;;;;;;;;;;20.00;72.30;;;;;;6272682;22;20249;-65
2023/04/25 07:55:39;;;;;;;;;;;20.00;72.40;;;;;;6272965;22;19934;-65
2023/04/25 07:58:07;;;;;;;;;;;20.00;72.90;;;;;;6272835;22;19907;-65
2023/04/25 08:00:33;;;;;;;;;;;20.00;73.30;;;;;;6273164;22;19915;-65
2023/04/25 08:03:00;;;;;;;;;;;20.00;73.30;;;;;;6273136;22;20246;-65
2023/04/25 08:05:26;;;;;;;;;;;20.00;73.50;;;;;;6273502;22;20049;-65
2023/04/25 08:07:53;;;;;;;;;;;20.00;73.60;;;;;;6276349;22;19985;-65
2023/04/25 08:10:20;;;;;;;;;;;20.00;73.40;;;;;;6276989;22;20345;-65
2023/04/25 08:12:47;;;;;;;;;;;20.00;73.70;;;;;;6276993;22;19937;-65
2023/04/25 08:15:13;;;;;;;;;;;20.00;73.90;;;;;;6273526;22;19903;-67
2023/04/25 08:17:40;;;;;;;;;;;20.00;74.20;;;;;;6273198;22;19907;-66
2023/04/25 08:20:07;;;;;;;;;;;19.90;74.30;;;;;;6273908;22;20328;-66
2023/04/25 08:22:33;;;;;;;;;;;19.90;74.60;;;;;;6272882;22;19961;-66
2023/04/25 08:25:00;;;;;;;;;;;19.90;74.70;;;;;;6273354;22;19986;-65
2023/04/25 08:27:27;;;;;;;;;;;19.90;74.80;;;;;;6272689;22;19915;-66
2023/04/25 08:29:55;;;;;;;;;;;19.80;74.70;;;;;;6273634;22;19908;-66
2023/04/25 08:32:21;;;;;;;;;;;19.90;74.70;;;;;;6273689;22;19914;-66
2023/04/25 08:34:48;;;;;;;;;;;19.90;75.20;;;;;;6246025;22;19914;-66
2023/04/25 08:37:14;;;;;;;;;;;19.80;75.10;;;;;;6272956;22;20362;-66
2023/04/25 08:39:41;;;;;;;;;;;19.90;75.00;;;;;;6273550;22;19955;-65
2023/04/25 08:42:10;;;;;;;;;;;19.80;75.30;;;;;;6246428;22;20255;-65
2023/04/25 08:44:37;;;;;;;;;;;19.80;75.10;;;;;;6246219;22;20347;-65
2023/04/25 08:47:04;;;;;;;;;;;19.80;75.20;;;;;;6273327;22;19919;-67
2023/04/25 08:49:33;;;;;;;;;;;19.80;75.30;;;;;;6272900;22;20330;-66
2023/04/25 08:52:00;;;;;;;;;;;19.80;75.50;;;;;;6245783;22;19935;-66
2023/04/25 08:54:28;;;;;;;;;;;19.80;75.30;;;;;;6270515;22;19931;-66
2023/04/25 08:56:55;;;;;;;;;;;19.80;75.40;;;;;;6272791;22;19975;-66
2023/04/25 08:59:22;;;;;;;;;;;19.80;75.60;;;;;;6220702;22;20006;-66
2023/04/25 09:01:49;;;;;;;;;;;19.70;75.90;;;;;;6270353;22;19919;-66
2023/04/25 09:04:16;;;;;;;;;;;19.80;75.90;;;;;;6272124;22;19959;-63
2023/04/25 09:06:43;;;;;;;;;;;19.80;75.80;;;;;;6244929;22;19907;-65
2023/04/25 09:09:10;;;;;;;;;;;19.70;75.90;;;;;;6271313;22;20279;-64
2023/04/25 09:11:44;;;;;;;;;;;19.70;76.10;;;;;;6273195;22;19911;-64
2023/04/25 09:14:17;;;;;;;;;;;19.70;75.90;;;;;;6272999;22;19911;-66
2023/04/25 09:16:56;;;;;;;;;;;19.70;76.10;;;;;;6272923;22;20140;-66
2023/04/25 09:19:26;;;;;;;;;;;19.70;76.20;;;;;;6272234;22;19918;-66
2023/04/25 09:21:59;;;;;;;;;;;19.70;76.10;;;;;;6272938;22;19907;-65
2023/04/25 09:24:35;;;;;;;;;;;19.70;76.00;;;;;;6272649;22;20322;-66
2023/04/25 09:27:05;;;;;;;;;;;19.70;76.00;;;;;;6272006;22;20360;-66
2023/04/25 09:29:32;;;;;;;;;;;19.70;76.20;;;;;;6245282;22;19923;-66
2023/04/25 09:32:17;;;;;;;;;;;19.70;76.30;;;;;;6271577;22;19938;-67
2023/04/25 09:34:55;;;;;;;;;;;19.70;76.30;;;;;;6270991;22;19907;-66
2023/04/25 09:37:22;;;;;;;;;;;19.70;76.30;;;;;;6272707;22;19903;-67
2023/04/25 09:39:50;;;;;;;;;;;19.70;76.10;;;;;;6272999;22;19907;-66
2023/04/25 09:42:16;;;;;;;;;;;19.70;76.20;;;;;;6244268;22;19911;-68
2023/04/25 09:44:46;;;;;;;;;;;19.60;76.70;;;;;;6245905;22;19911;-67
2023/04/25 09:47:13;;;;;;;;;;;19.60;76.30;;;;;;6245502;22;20277;-67
2023/04/25 09:49:43;;;;;;;;;;;19.60;76.70;;;;;;6245888;22;20331;-68
2023/04/25 09:52:15;;;;;;;;;;;19.60;76.50;;;;;;6245730;22;19907;-68
2023/04/25 09:54:42;;;;;;;;;;;19.60;76.70;;;;;;6243158;22;19945;-68
2023/04/25 09:57:11;;;;;;;;;;;19.60;76.30;;;;;;6246144;22;20290;-67
2023/04/25 09:59:43;;;;;;;;;;;19.60;76.10;;;;;;6245403;22;19922;-66
2023/04/25 10:02:10;;;;;;;;;;;19.60;76.50;;;;;;6272336;22;19907;-67
2023/04/25 10:04:36;;;;;;;;;;;19.60;76.30;;;;;;6245531;22;19914;-66
2023/04/25 10:07:06;;;;;;;;;;;19.50;76.40;;;;;;6246004;22;19907;-67
2023/04/25 10:09:35;;;;;;;;;;;19.50;76.70;;;;;;6272010;22;19962;-67
2023/04/25 10:12:03;;;;;;;;;;;19.50;76.70;;;;;;6272478;22;19927;-67
2023/04/25 10:14:32;;;;;;;;;;;19.50;76.60;;;;;;6271733;22;19907;-68
2023/04/25 10:16:59;;;;;;;;;;;19.50;76.50;;;;;;6272636;22;20042;-67
2023/04/25 10:19:26;;;;;;;;;;;19.50;77.00;;;;;;6272329;22;19907;-66
2023/04/25 10:21:54;;;;;;;;;;;19.40;76.70;;;;;;6272965;22;19903;-68
2023/04/25 10:24:21;;;;;;;;;;;19.50;76.90;;;;;;6245528;22;19907;-66
2023/04/25 10:26:48;;;;;;;;;;;19.50;77.30;;;;;;6272495;22;19907;-67
2023/04/25 10:29:21;;;;;;;;;;;19.40;77.00;;;;;;6272202;22;20415;-66
2023/04/25 10:31:48;;;;;;;;;;;19.50;77.10;;;;;;6272917;22;19913;-67
2023/04/25 10:34:15;;;;;;;;;;;19.40;77.50;;;;;;6272736;22;19907;-66
2023/04/25 10:36:41;;;;;;;;;;;19.40;77.10;;;;;;6220164;22;19915;-67
2023/04/25 10:39:09;;;;;;;;;;;19.40;77.20;;;;;;6244334;22;20486;-67
2023/04/25 10:41:56;;;;;;;;;;;19.30;77.40;;;;;;6271806;22;20297;-66
2023/04/25 10:44:22;;;;;;;;;;;19.30;77.60;;;;;;6271113;22;19918;-66
2023/04/25 10:46:49;;;;;;;;;;;19.30;77.80;;;;;;6272647;22;19907;-65
2023/04/25 10:49:28;;;;;;;;;;;19.30;77.90;;;;;;6272340;22;19915;-65
2023/04/25 10:52:10;;;;;;;;;;;19.30;77.70;;;;;;6272079;22;19914;-66
2023/04/25 10:54:57;;;;;;;;;;;19.30;78.00;;;;;;6270034;22;19908;-66
2023/04/25 10:57:42;;;;;;;;;;;19.20;78.20;;;;;;6272179;22;19911;-65
2023/04/25 11:00:12;;;;;;;;;;;19.20;78.20;;;;;;6245241;22;19938;-66
2023/04/25 11:02:41;;;;;;;;;;;19.10;78.20;;;;;;6270979;22;19910;-66
2023/04/25 11:05:08;;;;;;;;;;;19.10;78.30;;;;;;6245647;22;19916;-65
2023/04/25 11:07:38;;;;;;;;;;;19.10;78.40;;;;;;6220014;22;19941;-65
2023/04/25 11:10:04;;;;;;;;;;;19.10;78.60;;;;;;6272566;22;19911;-65
2023/04/25 11:12:31;;;;;;;;;;;19.00;78.40;;;;;;6272306;22;20254;-64
2023/04/25 11:15:05;;;;;;;;;;;19.00;78.40;;;;;;6270811;22;19907;-65
2023/04/25 11:17:31;;;;;;;;;;;19.00;78.50;;;;;;6271048;22;19907;-66
2023/04/25 11:19:58;;;;;;;;;;;19.00;78.60;;;;;;6245955;22;19914;-66
2023/04/25 11:22:26;;;;;;;;;;;19.00;78.70;;;;;;6274189;22;19903;-66
2023/04/25 11:24:53;;;;;;;;;;;19.00;78.60;;;;;;6247340;22;19957;-66
2023/04/25 11:27:20;;;;;;;;;;;19.00;78.70;;;;;;6247166;22;20436;-66
2023/04/25 11:29:47;;;;;;;;;;;18.90;78.80;;;;;;6246848;22;20243;-66
2023/04/25 11:32:15;;;;;;;;;;;18.90;78.80;;;;;;6273935;22;19990;-66
2023/04/25 11:34:43;;;;;;;;;;;18.90;78.70;;;;;;6274494;22;19991;-65
2023/04/25 11:37:12;;;;;;;;;;;18.90;78.80;;;;;;6274087;22;19907;-65
2023/04/25 11:39:39;;;;;;;;;;;18.90;79.00;;;;;;6247068;22;20312;-66
2023/04/25 11:42:05;;;;;;;;;;;18.90;79.00;;;;;;6273231;22;19907;-66
2023/04/25 11:44:32;;;;;;;;;;;18.90;79.00;;;;;;6247163;22;19926;-66
2023/04/25 11:46:59;;;;;;;;;;;19.00;79.20;;;;;;6273956;22;19911;-66
2023/04/25 11:49:30;;;;;;;;;;;18.90;78.80;;;;;;6273751;22;19916;-66
2023/04/25 11:51:57;;;;;;;;;;;18.90;78.40;;;;;;6274371;22;20334;-66
2023/04/25 11:54:23;;;;;;;;;;;19.00;78.60;;;;;;6276941;22;19986;-66
2023/04/25 11:56:50;;;;;;;;;;;19.00;78.40;;;;;;6276935;22;19930;-65
2023/04/25 11:59:17;;;;;;;;;;;19.00;78.30;;;;;;6276882;22;20038;-66
2023/04/25 12:01:53;;;;;;;;;;;19.00;78.50;;;;;;6277175;22;19982;-65
2023/04/25 12:04:23;;;;;;;;;;;19.00;78.40;;;;;;6276707;22;19910;-66
2023/04/25 12:06:50;;;;;;;;;;;18.90;78.70;;;;;;6277059;22;19978;-66
2023/04/25 12:09:18;;;;;;;;;;;18.90;78.60;;;;;;6276559;22;19922;-65
2023/04/25 12:11:46;;;;;;;;;;;18.90;78.60;;;;;;6276334;22;19977;-65
2023/04/25 12:14:13;;;;;;;;;;;18.90;78.90;;;;;;6250093;22;19911;-65
2023/04/25 12:16:43;;;;;;;;;;;18.80;78.90;;;;;;6250293;22;19907;-65
2023/04/25 12:19:09;;;;;;;;;;;18.90;78.80;;;;;;6276554;22;19904;-65
2023/04/25 12:21:36;;;;;;;;;;;18.80;78.90;;;;;;6276973;22;19911;-65
2023/04/25 12:24:14;;;;;;;;;;;18.80;79.30;;;;;;6277315;22;19982;-65
2023/04/25 12:27:09;;;;;;;;;;;18.80;79.50;;;;;;6276806;22;19911;-65
2023/04/25 12:29:36;;;;;;;;;;;18.80;79.80;;;;;;6271751;22;19931;-65
2023/04/25 12:32:03;;;;;;;;;;;18.70;80.00;;;;;;6275312;22;19907;-65
2023/04/25 12:34:31;;;;;;;;;;;18.70;80.20;;;;;;6249893;22;19904;-65
2023/04/25 12:36:58;;;;;;;;;;;18.60;80.50;;;;;;6276669;22;19926;-66
2023/04/25 12:39:25;;;;;;;;;;;18.60;80.60;;;;;;6276752;22;20276;-65
2023/04/25 12:41:55;;;;;;;;;;;18.60;80.80;;;;;;6249864;22;19910;-65
2023/04/25 12:44:22;;;;;;;;;;;18.50;81.10;;;;;;6276623;22;19913;-65
2023/04/25 12:46:49;;;;;;;;;;;18.50;81.50;;;;;;6276576;22;19979;-65
2023/04/25 12:49:16;;;;;;;;;;;18.50;81.90;;;;;;6276095;22;20281;-65
2023/04/25 12:51:43;;;;;;;;;;;18.50;82.30;;;;;;6276152;22;19903;-65
2023/04/25 12:54:09;;;;;;;;;;;18.40;82.40;;;;;;6276909;22;20238;-65
2023/04/25 12:56:36;;;;;;;;;;;18.40;82.60;;;;;;6276577;22;19910;-65
2023/04/25 12:59:03;;;;;;;;;;;18.30;82.90;;;;;;6276633;22;19911;-65
2023/04/25 13:01:30;;;;;;;;;;;18.30;83.00;;;;;;6275963;22;19911;-65
2023/04/25 13:03:56;;;;;;;;;;;18.30;83.00;;;;;;6276760;22;19903;-65
2023/04/25 13:06:23;;;;;;;;;;;18.30;83.20;;;;;;6276429;22;19904;-65
2023/04/25 13:08:50;;;;;;;;;;;18.20;83.30;;;;;;6275784;22;20015;-65
2023/04/25 13:11:17;;;;;;;;;;;18.20;83.40;;;;;;6275602;22;19903;-65
2023/04/25 13:13:43;;;;;;;;;;;18.20;83.50;;;;;;6276226;22;19907;-65
2023/04/25 13:16:11;;;;;;;;;;;18.10;83.50;;;;;;6276615;22;19904;-65
2023/04/25 13:18:37;;;;;;;;;;;18.10;83.70;;;;;;6249162;22;20322;-65
2023/04/25 13:21:04;;;;;;;;;;;18.10;83.80;;;;;;6277009;22;19911;-65
2023/04/25 13:23:31;;;;;;;;;;;18.00;83.80;;;;;;6276040;22;19934;-65
2023/04/25 13:25:58;;;;;;;;;;;18.00;83.80;;;;;;6276298;22;19903;-65
2023/04/25 13:28:25;;;;;;;;;;;18.00;83.80;;;;;;6276516;22;20212;-65
2023/04/25 13:30:52;;;;;;;;;;;18.00;83.80;;;;;;6276895;22;19903;-65
2023/04/25 13:33:20;;;;;;;;;;;18.00;83.90;;;;;;6249640;22;20390;-65
2023/04/25 13:35:53;;;;;;;;;;;18.00;83.80;;;;;;6275866;22;19981;-65
2023/04/25 13:38:23;;;;;;;;;;;17.90;83.60;;;;;;6275906;22;19957;-66
2023/04/25 13:40:51;;;;;;;;;;;17.90;83.80;;;;;;6249547;22;19904;-65
2023/04/25 13:43:19;;;;;;;;;;;17.90;83.80;;;;;;6275993;22;19903;-65
2023/04/25 13:45:46;;;;;;;;;;;17.80;83.80;;;;;;6276422;22;19910;-65
2023/04/25 13:48:13;;;;;;;;;;;17.80;83.80;;;;;;6275341;22;20274;-65
2023/04/25 13:50:39;;;;;;;;;;;17.80;84.00;;;;;;6276200;22;20231;-65
2023/04/25 13:53:06;;;;;;;;;;;17.70;84.30;;;;;;6275915;22;19914;-65
2023/04/25 13:55:35;;;;;;;;;;;17.70;84.30;;;;;;6276088;22;19926;-65
2023/04/25 13:58:07;;;;;;;;;;;17.70;84.50;;;;;;6275577;22;20277;-65
2023/04/25 14:00:34;;;;;;;;;;;17.70;84.60;;;;;;6275881;22;19925;-65
2023/04/25 14:03:04;;;;;;;;;;;17.70;84.40;;;;;;6249030;22;19903;-65
2023/04/25 14:05:31;;;;;;;;;;;17.70;84.30;;;;;;6275883;22;19927;-65
2023/04/25 14:07:58;;;;;;;;;;;17.60;84.30;;;;;;6275156;22;19908;-65
2023/04/25 14:10:24;;;;;;;;;;;17.60;84.20;;;;;;6248924;22;19907;-65
2023/04/25 14:12:51;;;;;;;;;;;17.60;84.30;;;;;;6275156;22;19903;-65
2023/04/25 14:15:18;;;;;;;;;;;17.60;84.40;;;;;;6275892;22;20016;-65
2023/04/25 14:17:45;;;;;;;;;;;17.60;84.30;;;;;;6275560;22;19903;-65
2023/04/25 14:20:12;;;;;;;;;;;17.70;84.30;;;;;;6276275;22;19904;-65
2023/04/25 14:22:42;;;;;;;;;;;17.60;84.50;;;;;;6275723;22;20326;-65
2023/04/25 14:25:10;;;;;;;;;;;17.60;84.60;;;;;;6275608;22;19903;-65
2023/04/25 14:27:36;;;;;;;;;;;17.50;85.00;;;;;;6274978;22;19903;-65
2023/04/25 14:30:04;;;;;;;;;;;17.50;85.20;;;;;;6275949;22;19907;-66
2023/04/25 14:32:31;;;;;;;;;;;17.50;85.30;;;;;;6275033;22;20461;-65
2023/04/25 14:34:58;;;;;;;;;;;17.50;85.40;;;;;;6275655;22;19931;-66
2023/04/25 14:37:25;;;;;;;;;;;17.50;85.40;;;;;;6275618;22;19994;-65
2023/04/25 14:39:52;;;;;;;;;;;17.50;85.50;;;;;;6276045;22;19903;-65
2023/04/25 14:42:18;;;;;;;;;;;17.40;85.60;;;;;;6275179;22;19903;-65
2023/04/25 14:44:45;;;;;;;;;;;17.50;85.60;;;;;;6275543;22;19904;-65
2023/04/25 14:47:12;;;;;;;;;;;17.40;85.80;;;;;;6275504;22;19910;-65
2023/04/25 14:49:38;;;;;;;;;;;17.40;85.70;;;;;;6275704;22;19919;-65
2023/04/25 14:52:05;;;;;;;;;;;17.40;85.60;;;;;;6249332;22;19910;-65
2023/04/25 14:54:32;;;;;;;;;;;17.40;85.90;;;;;;6276528;22;19907;-65
2023/04/25 14:56:58;;;;;;;;;;;17.40;85.90;;;;;;6277131;22;19910;-65
2023/04/25 14:59:26;;;;;;;;;;;17.40;85.80;;;;;;6277649;22;19939;-65
2023/04/25 15:01:53;;;;;;;;;;;17.40;85.70;;;;;;6277391;22;19930;-65
2023/04/25 15:04:20;;;;;;;;;;;17.30;86.00;;;;;;6251013;22;19903;-65
2023/04/25 15:06:47;;;;;;;;;;;17.40;86.30;;;;;;6277491;22;19910;-65
2023/04/25 15:09:13;;;;;;;;;;;17.40;86.50;;;;;;6277252;22;19915;-65
2023/04/25 15:11:40;;;;;;;;;;;17.30;86.80;;;;;;6277949;22;19912;-65
2023/04/25 15:14:07;;;;;;;;;;;17.30;87.10;;;;;;6250478;22;19926;-65
2023/04/25 15:16:33;;;;;;;;;;;17.30;87.50;;;;;;6277732;22;19903;-65
2023/04/25 15:19:03;;;;;;;;;;;17.20;87.70;;;;;;6277454;22;19927;-65
2023/04/25 15:21:31;;;;;;;;;;;17.20;87.80;;;;;;6277455;22;19912;-65
2023/04/25 15:23:57;;;;;;;;;;;17.20;87.90;;;;;;6277260;22;19914;-65
2023/04/25 15:26:24;;;;;;;;;;;17.20;88.10;;;;;;6277157;22;19918;-65
2023/04/25 15:28:52;;;;;;;;;;;17.20;88.40;;;;;;6277323;22;19977;-65
2023/04/25 15:31:19;;;;;;;;;;;17.20;88.40;;;;;;6276759;22;19907;-65
2023/04/25 15:33:45;;;;;;;;;;;17.20;88.40;;;;;;6277031;22;19903;-65
2023/04/25 15:36:12;;;;;;;;;;;17.10;88.50;;;;;;6277165;22;19925;-65
2023/04/25 15:38:39;;;;;;;;;;;17.10;88.50;;;;;;6277465;22;19934;-65
2023/04/25 15:41:06;;;;;;;;;;;17.00;88.60;;;;;;6277235;22;19941;-65
2023/04/25 15:43:35;;;;;;;;;;;17.00;88.60;;;;;;6276837;22;19942;-65
2023/04/25 15:46:02;;;;;;;;;;;17.00;88.60;;;;;;6277102;22;20318;-65
2023/04/25 15:48:28;;;;;;;;;;;16.90;88.60;;;;;;6277178;22;20303;-66
2023/04/25 15:50:55;;;;;;;;;;;16.90;88.70;;;;;;6277166;22;19915;-65
2023/04/25 15:53:22;;;;;;;;;;;16.90;88.80;;;;;;6277149;22;19938;-65
2023/04/25 15:55:49;;;;;;;;;;;16.90;88.80;;;;;;6277916;22;19907;-65
2023/04/25 15:58:15;;;;;;;;;;;16.80;88.80;;;;;;6276963;22;19914;-65
2023/04/25 16:00:42;;;;;;;;;;;16.90;88.90;;;;;;6277130;22;19907;-65
2023/04/25 16:03:09;;;;;;;;;;;16.90;88.80;;;;;;6277264;22;19903;-65
2023/04/25 16:05:36;;;;;;;;;;;16.80;88.70;;;;;;6276790;22;20315;-65
2023/04/25 16:08:03;;;;;;;;;;;16.80;88.90;;;;;;6249825;22;19911;-66
2023/04/25 17:30:33;;;;;;;;;;;16.60;89.80;;;;;;6272746;22;20006;-65
2023/04/25 17:33:00;;;;;;;;;;;16.50;89.90;;;;;;6276035;22;19915;-65
2023/04/25 17:35:28;;;;;;;;;;;16.50;89.90;;;;;;6276487;22;19903;-65
2023/04/25 17:37:54;;;;;;;;;;;16.50;89.90;;;;;;6275971;22;19903;-65
2023/04/25 17:40:21;;;;;;;;;;;16.50;89.90;;;;;;6276350;22;19903;-65
2023/04/25 17:42:48;;;;;;;;;;;16.50;89.80;;;;;;6276551;22;19903;-65
2023/04/25 17:45:15;;;;;;;;;;;16.50;89.70;;;;;;6275586;22;20277;-65
2023/04/25 17:47:41;;;;;;;;;;;16.60;89.80;;;;;;6275826;22;19904;-65
2023/04/25 17:50:08;;;;;;;;;;;16.60;89.60;;;;;;6275991;22;20281;-65
2023/04/25 17:52:37;;;;;;;;;;;16.50;89.70;;;;;;6276259;22;19950;-65
2023/04/25 17:55:05;;;;;;;;;;;16.50;89.60;;;;;;6249772;22;20003;-65
2023/04/25 17:57:32;;;;;;;;;;;16.50;89.60;;;;;;6275147;22;20281;-65
2023/04/25 17:59:58;;;;;;;;;;;16.50;89.70;;;;;;6275872;22;20246;-65
2023/04/25 18:02:25;;;;;;;;;;;16.40;89.70;;;;;;6276261;22;19908;-65
2023/04/25 18:04:52;;;;;;;;;;;16.40;89.70;;;;;;6276028;22;19926;-65
2023/04/25 18:07:19;;;;;;;;;;;16.50;89.80;;;;;;6276013;22;19938;-65
2023/04/25 18:09:46;;;;;;;;;;;16.50;90.00;;;;;;6276178;22;19911;-65
2023/04/25 18:12:14;;;;;;;;;;;16.40;90.20;;;;;;6275657;22;19981;-65
2023/04/25 18:14:40;;;;;;;;;;;16.40;90.30;;;;;;6275861;22;20215;-65
2023/04/25 18:17:07;;;;;;;;;;;16.40;90.30;;;;;;6275723;22;19982;-65
2023/04/25 18:19:34;;;;;;;;;;;16.50;90.10;;;;;;6275188;22;19910;-65
2023/04/25 18:22:01;;;;;;;;;;;16.50;90.20;;;;;;6275188;22;20331;-65
2023/04/25 18:24:28;;;;;;;;;;;16.50;90.00;;;;;;6276116;22;19974;-65
2023/04/25 18:26:59;;;;;;;;;;;16.50;89.90;;;;;;6275764;22;19904;-65
2023/04/25 18:29:26;;;;;;;;;;;16.50;89.90;;;;;;6278184;22;19949;-65
2023/04/25 18:31:53;;;;;;;;;;;16.50;89.90;;;;;;6277327;22;20280;-65
2023/04/25 18:34:23;;;;;;;;;;;16.50;89.90;;;;;;6251401;22;19953;-65
2023/04/25 18:36:51;;;;;;;;;;;16.50;90.00;;;;;;6277464;22;19907;-65
2023/04/25 18:39:17;;;;;;;;;;;16.50;89.90;;;;;;6278244;22;19941;-64
2023/04/25 18:41:44;;;;;;;;;;;16.50;90.00;;;;;;6277607;22;20246;-65
2023/04/25 18:44:11;;;;;;;;;;;16.50;89.90;;;;;;6278322;22;19910;-65
2023/04/25 18:46:40;;;;;;;;;;;16.40;89.90;;;;;;6277695;22;19903;-65
2023/04/25 18:49:07;;;;;;;;;;;16.30;90.00;;;;;;6276946;22;19919;-65
2023/04/25 18:51:34;;;;;;;;;;;16.30;90.20;;;;;;6274464;22;19930;-65
2023/04/25 18:54:01;;;;;;;;;;;16.30;90.40;;;;;;6276904;22;19978;-65
2023/04/25 18:56:27;;;;;;;;;;;16.30;90.50;;;;;;6277085;22;19965;-65
2023/04/25 18:58:54;;;;;;;;;;;16.30;90.40;;;;;;6275581;22;19938;-65
2023/04/25 19:01:21;;;;;;;;;;;16.20;90.50;;;;;;6277057;22;19911;-65
2023/04/25 19:03:55;;;;;;;;;;;16.30;90.60;;;;;;6277074;22;19956;-65
2023/04/25 19:06:22;;;;;;;;;;;16.20;90.60;;;;;;6277167;22;19987;-66
2023/04/25 19:08:51;;;;;;;;;;;16.20;90.50;;;;;;6276601;22;19949;-65
2023/04/25 19:11:18;;;;;;;;;;;16.20;90.20;;;;;;6277080;22;20345;-66
2023/04/25 19:13:48;;;;;;;;;;;16.20;90.30;;;;;;6276358;22;19907;-66
2023/04/25 19:16:16;;;;;;;;;;;16.10;90.40;;;;;;6276471;22;19910;-65
2023/04/25 19:18:43;;;;;;;;;;;16.20;90.50;;;;;;6276130;22;19904;-66
2023/04/25 19:21:10;;;;;;;;;;;16.20;90.60;;;;;;6277423;22;19925;-66
2023/04/25 19:23:36;;;;;;;;;;;16.20;90.50;;;;;;6277150;22;19903;-66
2023/04/25 19:26:03;;;;;;;;;;;16.20;90.60;;;;;;6277696;22;19950;-66
2023/04/25 19:28:30;;;;;;;;;;;16.20;90.60;;;;;;6276703;22;19918;-66
2023/04/25 19:30:58;;;;;;;;;;;16.20;90.90;;;;;;6250178;22;20342;-66
2023/04/25 19:33:25;;;;;;;;;;;16.20;91.10;;;;;;6250185;22;19986;-66
2023/04/25 19:35:51;;;;;;;;;;;16.10;91.10;;;;;;6277459;22;19956;-65
2023/04/25 19:38:18;;;;;;;;;;;16.10;91.00;;;;;;6277404;22;19961;-65
2023/04/25 19:40:45;;;;;;;;;;;16.10;91.10;;;;;;6277002;22;20016;-65
2023/04/25 19:43:11;;;;;;;;;;;16.10;91.20;;;;;;6277080;22;19950;-65
2023/04/25 19:45:38;;;;;;;;;;;16.00;91.10;;;;;;6277137;22;19957;-65
2023/04/25 19:48:07;;;;;;;;;;;16.00;91.20;;;;;;6276734;22;19918;-65
2023/04/25 19:50:34;;;;;;;;;;;16.00;91.40;;;;;;6276958;22;19981;-65
2023/04/25 19:53:00;;;;;;;;;;;16.00;91.30;;;;;;6276855;22;19982;-65
2023/04/25 19:55:27;;;;;;;;;;;16.00;91.40;;;;;;6277200;22;19907;-65
2023/04/25 19:57:54;;;;;;;;;;;16.00;91.50;;;;;;6277019;22;19910;-65
2023/04/25 20:00:21;;;;;;;;;;;16.00;91.60;;;;;;6277732;22;19912;-65
2023/04/25 20:02:47;;;;;;;;;;;16.00;91.60;;;;;;6249826;22;19903;-65
2023/04/25 20:05:15;;;;;;;;;;;16.00;91.50;;;;;;6276740;22;19957;-65
2023/04/25 20:07:41;;;;;;;;;;;16.00;91.40;;;;;;6277023;22;19904;-65
2023/04/25 20:10:09;;;;;;;;;;;16.00;91.30;;;;;;6276921;22;20314;-65
2023/04/25 20:12:36;;;;;;;;;;;16.00;91.30;;;;;;6276257;22;19903;-65
2023/04/25 20:15:03;;;;;;;;;;;16.00;91.40;;;;;;6276189;22;19910;-65
2023/04/25 20:17:30;;;;;;;;;;;16.00;91.20;;;;;;6276951;22;19992;-65
2023/04/25 20:19:57;;;;;;;;;;;16.00;91.30;;;;;;6277068;22;19903;-66
2023/04/25 20:22:24;;;;;;;;;;;15.90;91.30;;;;;;6250228;22;20326;-65
2023/04/25 20:24:51;;;;;;;;;;;16.00;91.30;;;;;;6276883;22;19911;-65
2023/04/25 20:27:18;;;;;;;;;;;16.00;91.30;;;;;;6276678;22;19907;-65
2023/04/25 20:29:45;;;;;;;;;;;16.00;91.20;;;;;;6276836;22;20523;-65
2023/04/25 20:32:11;;;;;;;;;;;16.00;91.10;;;;;;6276682;22;19916;-65
2023/04/25 20:34:38;;;;;;;;;;;16.00;91.00;;;;;;6276387;22;19949;-64
2023/04/25 20:37:07;;;;;;;;;;;15.90;91.00;;;;;;6276498;22;20314;-65
2023/04/25 20:39:34;;;;;;;;;;;15.90;90.90;;;;;;6276493;22;20281;-65
2023/04/25 20:42:01;;;;;;;;;;;15.90;90.80;;;;;;6275850;22;19947;-65
2023/04/25 20:44:28;;;;;;;;;;;15.90;91.00;;;;;;6275748;22;19953;-65
2023/04/25 20:46:55;;;;;;;;;;;15.90;91.00;;;;;;6277156;22;20024;-65
2023/04/25 20:49:22;;;;;;;;;;;15.90;91.10;;;;;;6276828;22;19919;-64
2023/04/25 20:51:48;;;;;;;;;;;15.80;91.10;;;;;;6275753;22;19990;-65
2023/04/25 20:54:15;;;;;;;;;;;15.90;91.10;;;;;;6276452;22;19907;-64
2023/04/25 20:56:42;;;;;;;;;;;15.90;91.00;;;;;;6276943;22;19914;-65
2023/04/25 21:10:31;;;;;;;;;;;16.10;91.20;;;;;;6256377;22;19926;-65
2023/04/25 21:12:57;;;;;;;;;;;16.10;91.20;;;;;;6245073;23;19990;-65
2023/04/25 21:15:24;;;;;;;;;;;16.10;91.20;;;;;;6245691;23;19966;-64
2023/04/25 21:17:51;;;;;;;;;;;16.20;91.20;;;;;;6245584;22;19907;-66
2023/04/25 21:20:19;;;;;;;;;;;16.20;91.20;;;;;;6245154;23;19904;-65
2023/04/25 21:22:48;;;;;;;;;;;16.20;91.10;;;;;;6245326;23;19910;-65
2023/04/25 21:25:19;;;;;;;;;;;16.20;91.20;;;;;;6244452;23;19989;-64
2023/04/25 21:27:48;;;;;;;;;;;16.30;91.50;;;;;;6245436;22;19918;-65
2023/04/25 21:30:15;;;;;;;;;;;16.30;91.40;;;;;;6245614;23;19914;-65
2023/04/25 21:32:43;;;;;;;;;;;16.30;91.10;;;;;;6245868;23;19904;-66
2023/04/25 21:35:10;;;;;;;;;;;16.30;90.80;;;;;;6245580;23;20216;-66
2023/04/25 21:37:37;;;;;;;;;;;16.30;90.60;;;;;;6244969;22;20200;-66
2023/04/25 21:40:04;;;;;;;;;;;16.30;90.50;;;;;;6245630;23;19904;-66
2023/04/25 21:42:31;;;;;;;;;;;16.40;90.60;;;;;;6245706;23;19911;-68
2023/04/25 21:44:58;;;;;;;;;;;16.50;90.60;;;;;;6245465;23;19926;-66
2023/04/25 21:47:25;;;;;;;;;;;16.50;90.50;;;;;;6244813;22;19910;-65
2023/04/25 21:49:51;;;;;;;;;;;16.50;90.40;;;;;;6244085;23;19938;-66